Time;durP1;ratioP1;P1;durP2;ratioP2;P2;SDS_P1;SDS_P2;PMS_P1;PMS_P2;Temp;Humidity;BMP_temperature;BMP_pressure;BME280_temperature;BME280_humidity;BME280_pressure;Samples;Min_cycle;Max_cycle;Signal;HPM_P1;HPM_P2
2021/12/10 00:00:10;;;;;;;;;;;22.00;51.80;;;;;;696669;28;770;-87
2021/12/10 00:00:40;;;;;;;;;;;22.00;51.70;;;;;;696609;28;887;-87
2021/12/10 00:01:05;;;;;;;;;;;22.00;51.70;;;;;;696872;28;829;-87
2021/12/10 00:01:34;;;;;;;;;;;22.00;51.80;;;;;;696905;28;821;-87
2021/12/10 00:02:01;;;;;;;;;;;22.00;51.80;;;;;;696783;28;785;-86
2021/12/10 00:02:22;;;;;;;;;;;22.00;51.60;;;;;;696964;28;837;-85
2021/12/10 00:02:46;;;;;;;;;;;22.00;51.70;;;;;;696934;28;817;-81
2021/12/10 00:03:11;;;;;;;;;;;22.00;51.60;;;;;;696716;28;1080;-88
2021/12/10 00:03:33;;;;;;;;;;;22.00;51.60;;;;;;696960;28;864;-87
2021/12/10 00:03:56;;;;;;;;;;;22.00;51.70;;;;;;696817;28;786;-86
2021/12/10 00:04:18;;;;;;;;;;;22.00;51.70;;;;;;697055;28;845;-87
2021/12/10 00:04:40;;;;;;;;;;;22.00;51.60;;;;;;696802;28;916;-87
2021/12/10 00:05:03;;;;;;;;;;;22.00;51.50;;;;;;696947;28;829;-87
2021/12/10 00:05:27;;;;;;;;;;;22.00;51.60;;;;;;697004;28;856;-87
2021/12/10 00:05:51;;;;;;;;;;;22.00;51.70;;;;;;696779;28;956;-86
2021/12/10 00:06:11;;;;;;;;;;;22.00;51.60;;;;;;696855;28;862;-86
2021/12/10 00:06:37;;;;;;;;;;;22.00;51.70;;;;;;696778;28;848;-84
2021/12/10 00:07:00;;;;;;;;;;;22.00;51.60;;;;;;696815;28;905;-87
2021/12/10 00:07:22;;;;;;;;;;;22.00;51.60;;;;;;696849;28;758;-86
2021/12/10 00:07:43;;;;;;;;;;;22.00;51.70;;;;;;696727;28;787;-85
2021/12/10 00:08:04;;;;;;;;;;;22.00;51.70;;;;;;696700;28;821;-87
2021/12/10 00:08:28;;;;;;;;;;;22.00;51.60;;;;;;696780;28;1977;-84
2021/12/10 00:08:51;;;;;;;;;;;22.00;51.60;;;;;;696243;28;966;-85
2021/12/10 00:09:15;;;;;;;;;;;22.00;51.60;;;;;;696740;28;877;-86
2021/12/10 00:09:41;;;;;;;;;;;22.00;51.60;;;;;;696667;28;905;-87
2021/12/10 00:10:04;;;;;;;;;;;22.00;51.60;;;;;;696508;28;802;-87
2021/12/10 00:10:28;;;;;;;;;;;22.00;51.60;;;;;;696574;28;887;-86
2021/12/10 00:10:50;;;;;;;;;;;22.00;51.60;;;;;;696532;28;1254;-87
2021/12/10 00:11:17;;;;;;;;;;;22.00;51.60;;;;;;696661;28;920;-86
2021/12/10 00:11:41;;;;;;;;;;;22.00;51.50;;;;;;696702;28;910;-85
2021/12/10 00:12:06;;;;;;;;;;;22.00;51.50;;;;;;696704;28;766;-85
2021/12/10 00:12:29;;;;;;;;;;;22.00;51.60;;;;;;696688;28;844;-86
2021/12/10 00:12:51;;;;;;;;;;;22.00;51.60;;;;;;696557;28;1346;-86
2021/12/10 00:13:12;;;;;;;;;;;22.00;51.50;;;;;;696661;28;817;-86
2021/12/10 00:13:32;;;;;;;;;;;22.00;51.60;;;;;;696686;28;920;-86
2021/12/10 00:13:53;;;;;;;;;;;22.00;51.30;;;;;;696438;28;1066;-86
2021/12/10 00:14:15;;;;;;;;;;;22.00;51.40;;;;;;696483;28;1574;-82
2021/12/10 00:14:36;;;;;;;;;;;22.00;51.50;;;;;;696594;28;869;-84
2021/12/10 00:14:57;;;;;;;;;;;22.00;51.30;;;;;;696921;28;980;-84
2021/12/10 00:15:19;;;;;;;;;;;22.00;51.30;;;;;;697227;28;837;-86
2021/12/10 00:15:40;;;;;;;;;;;22.00;51.30;;;;;;697161;28;861;-85
2021/12/10 00:16:02;;;;;;;;;;;22.00;51.30;;;;;;697166;28;832;-87
2021/12/10 00:16:23;;;;;;;;;;;21.90;51.30;;;;;;697256;28;874;-85
2021/12/10 00:16:44;;;;;;;;;;;21.90;51.30;;;;;;697385;28;794;-87
2021/12/10 00:17:07;;;;;;;;;;;21.90;51.30;;;;;;697077;28;1501;-87
2021/12/10 00:17:27;;;;;;;;;;;21.90;51.30;;;;;;697210;28;806;-87
2021/12/10 00:17:48;;;;;;;;;;;21.90;51.30;;;;;;697016;28;952;-86
2021/12/10 00:18:11;;;;;;;;;;;21.90;51.40;;;;;;697224;28;822;-82
2021/12/10 00:18:36;;;;;;;;;;;21.90;51.40;;;;;;697186;28;838;-87
2021/12/10 00:19:10;;;;;;;;;;;21.90;51.50;;;;;;697345;28;842;-86
2021/12/10 00:19:38;;;;;;;;;;;21.90;51.50;;;;;;697386;28;833;-87
2021/12/10 00:19:59;;;;;;;;;;;21.90;51.50;;;;;;697231;28;900;-87
2021/12/10 00:20:23;;;;;;;;;;;21.80;51.50;;;;;;697399;28;821;-87
2021/12/10 00:20:44;;;;;;;;;;;21.80;51.50;;;;;;697305;28;829;-88
2021/12/10 00:21:05;;;;;;;;;;;21.80;51.50;;;;;;697414;28;861;-88
2021/12/10 00:21:26;;;;;;;;;;;21.80;51.50;;;;;;697495;28;860;-87
2021/12/10 00:21:48;;;;;;;;;;;21.80;51.60;;;;;;697358;28;794;-86
2021/12/10 00:22:11;;;;;;;;;;;21.80;51.60;;;;;;697459;28;820;-88
2021/12/10 00:22:39;;;;;;;;;;;21.80;51.80;;;;;;697340;28;857;-86
2021/12/10 00:23:03;;;;;;;;;;;21.80;51.70;;;;;;697334;28;810;-85
2021/12/10 00:23:23;;;;;;;;;;;21.80;51.70;;;;;;697160;28;1453;-88
2021/12/10 00:23:49;;;;;;;;;;;21.80;52.80;;;;;;697136;28;948;-85
2021/12/10 00:24:10;;;;;;;;;;;21.80;51.80;;;;;;697167;28;826;-84
2021/12/10 00:24:31;;;;;;;;;;;21.80;51.70;;;;;;697254;28;596;-87
2021/12/10 00:24:52;;;;;;;;;;;21.70;51.70;;;;;;697093;28;845;-87
2021/12/10 00:25:17;;;;;;;;;;;21.80;51.80;;;;;;697279;28;841;-88
2021/12/10 00:25:40;;;;;;;;;;;21.70;51.70;;;;;;697492;28;872;-88
2021/12/10 00:26:01;;;;;;;;;;;21.70;51.80;;;;;;697232;28;818;-87
2021/12/10 00:26:22;;;;;;;;;;;21.70;51.80;;;;;;697253;28;1382;-87
2021/12/10 00:26:44;;;;;;;;;;;21.70;51.80;;;;;;697486;28;917;-88
2021/12/10 00:27:07;;;;;;;;;;;21.80;51.90;;;;;;697396;28;763;-86
2021/12/10 00:27:29;;;;;;;;;;;21.80;52.00;;;;;;697409;28;908;-86
2021/12/10 00:27:51;;;;;;;;;;;21.70;51.90;;;;;;697236;28;825;-87
2021/12/10 00:28:19;;;;;;;;;;;21.80;52.00;;;;;;696609;28;1894;-87
2021/12/10 00:28:40;;;;;;;;;;;21.70;51.80;;;;;;697213;28;826;-87
2021/12/10 00:29:03;;;;;;;;;;;21.70;51.90;;;;;;697130;28;841;-87
2021/12/10 00:29:24;;;;;;;;;;;21.70;52.00;;;;;;697154;28;869;-88
2021/12/10 00:29:49;;;;;;;;;;;21.80;51.90;;;;;;697109;28;786;-88
2021/12/10 00:30:15;;;;;;;;;;;21.70;53.00;;;;;;697262;28;892;-87
2021/12/10 00:30:44;;;;;;;;;;;21.70;51.90;;;;;;697386;28;881;-85
2021/12/10 00:31:31;;;;;;;;;;;21.70;51.90;;;;;;697174;28;830;-88
2021/12/10 00:31:54;;;;;;;;;;;21.70;52.00;;;;;;697227;28;822;-87
2021/12/10 00:32:23;;;;;;;;;;;21.70;51.90;;;;;;697351;28;758;-87
2021/12/10 00:32:50;;;;;;;;;;;21.70;51.90;;;;;;697105;28;774;-87
2021/12/10 00:33:20;;;;;;;;;;;21.70;51.90;;;;;;697023;28;964;-88
2021/12/10 00:33:43;;;;;;;;;;;21.70;52.00;;;;;;697185;28;846;-88
2021/12/10 00:34:10;;;;;;;;;;;21.70;52.00;;;;;;697099;28;790;-87
2021/12/10 00:34:35;;;;;;;;;;;21.70;52.00;;;;;;697217;28;825;-87
2021/12/10 00:34:58;;;;;;;;;;;21.70;52.00;;;;;;697406;28;944;-88
2021/12/10 00:35:22;;;;;;;;;;;21.70;52.00;;;;;;697342;28;802;-88
2021/12/10 00:35:42;;;;;;;;;;;21.70;52.00;;;;;;697290;28;996;-88
2021/12/10 00:36:03;;;;;;;;;;;21.70;52.00;;;;;;697220;28;830;-87
2021/12/10 00:36:24;;;;;;;;;;;21.70;52.10;;;;;;697022;28;963;-86
2021/12/10 00:36:45;;;;;;;;;;;21.70;52.00;;;;;;697098;28;786;-86
2021/12/10 00:37:08;;;;;;;;;;;21.70;52.00;;;;;;697075;28;861;-87
2021/12/10 00:37:29;;;;;;;;;;;21.70;52.00;;;;;;697017;28;1330;-87
2021/12/10 00:37:49;;;;;;;;;;;21.70;52.00;;;;;;696917;28;1235;-85
2021/12/10 00:38:10;;;;;;;;;;;21.60;52.00;;;;;;697091;28;798;-87
2021/12/10 00:38:30;;;;;;;;;;;21.70;52.00;;;;;;697122;28;825;-86
2021/12/10 00:38:51;;;;;;;;;;;21.70;53.20;;;;;;697114;28;866;-87
2021/12/10 00:39:14;;;;;;;;;;;21.70;52.10;;;;;;697090;28;837;-87
2021/12/10 00:39:41;;;;;;;;;;;21.70;52.10;;;;;;697058;28;944;-86
2021/12/10 00:40:03;;;;;;;;;;;21.70;52.10;;;;;;697157;28;909;-88
2021/12/10 00:40:25;;;;;;;;;;;21.70;52.10;;;;;;697320;28;905;-88
2021/12/10 00:40:46;;;;;;;;;;;21.70;52.00;;;;;;697389;28;826;-87
2021/12/10 00:41:07;;;;;;;;;;;21.60;52.00;;;;;;697319;28;782;-87
2021/12/10 00:41:28;;;;;;;;;;;21.70;52.00;;;;;;697260;28;889;-85
2021/12/10 00:41:50;;;;;;;;;;;21.60;52.00;;;;;;697233;28;896;-87
2021/12/10 00:42:13;;;;;;;;;;;21.70;52.10;;;;;;697358;28;798;-87
2021/12/10 00:42:34;;;;;;;;;;;21.70;52.10;;;;;;697482;28;798;-87
2021/12/10 00:42:56;;;;;;;;;;;21.70;52.10;;;;;;697375;28;833;-84
2021/12/10 00:43:16;;;;;;;;;;;21.70;52.10;;;;;;697236;28;794;-87
2021/12/10 00:43:37;;;;;;;;;;;21.70;52.00;;;;;;697175;28;782;-87
2021/12/10 00:43:58;;;;;;;;;;;21.70;52.10;;;;;;699627;28;1050;-85
2021/12/10 00:44:19;;;;;;;;;;;21.60;52.10;;;;;;700071;28;984;-80
2021/12/10 00:44:39;;;;;;;;;;;21.60;52.10;;;;;;700243;28;1014;-86
2021/12/10 00:45:00;;;;;;;;;;;21.70;52.10;;;;;;699973;28;1438;-87
2021/12/10 00:45:21;;;;;;;;;;;21.60;52.10;;;;;;699937;28;1416;-86
2021/12/10 00:45:43;;;;;;;;;;;21.60;52.00;;;;;;699913;28;944;-87
2021/12/10 00:46:03;;;;;;;;;;;21.70;52.10;;;;;;697197;28;1706;-88
2021/12/10 00:46:24;;;;;;;;;;;21.60;52.10;;;;;;697274;28;909;-87
2021/12/10 00:46:45;;;;;;;;;;;21.60;52.10;;;;;;697695;28;905;-87
2021/12/10 00:47:06;;;;;;;;;;;21.60;52.00;;;;;;699778;28;837;-87
2021/12/10 00:47:28;;;;;;;;;;;21.60;52.00;;;;;;699857;28;865;-88
2021/12/10 00:47:49;;;;;;;;;;;21.60;52.00;;;;;;699708;28;818;-87
2021/12/10 00:48:10;;;;;;;;;;;21.60;52.10;;;;;;699976;28;1914;-86
2021/12/10 00:48:31;;;;;;;;;;;21.70;52.10;;;;;;699980;28;924;-87
2021/12/10 00:48:52;;;;;;;;;;;21.60;52.10;;;;;;700194;28;806;-88
2021/12/10 00:49:13;;;;;;;;;;;21.60;52.00;;;;;;700023;28;936;-87
2021/12/10 00:49:34;;;;;;;;;;;21.60;52.10;;;;;;700087;28;908;-86
2021/12/10 00:49:55;;;;;;;;;;;21.60;52.10;;;;;;699607;28;1331;-88
2021/12/10 00:50:17;;;;;;;;;;;21.60;52.10;;;;;;699887;28;872;-87
2021/12/10 00:50:41;;;;;;;;;;;21.60;52.10;;;;;;699856;28;991;-86
2021/12/10 00:51:02;;;;;;;;;;;21.60;52.10;;;;;;700076;28;837;-88
2021/12/10 00:51:23;;;;;;;;;;;21.60;52.10;;;;;;697033;28;1212;-88
2021/12/10 00:51:44;;;;;;;;;;;21.60;52.10;;;;;;698785;28;798;-83
2021/12/10 00:52:06;;;;;;;;;;;21.60;52.00;;;;;;699230;28;1286;-87
2021/12/10 00:52:26;;;;;;;;;;;21.60;52.10;;;;;;699857;28;1434;-89
2021/12/10 00:52:47;;;;;;;;;;;21.60;52.10;;;;;;700076;28;849;-87
2021/12/10 00:53:08;;;;;;;;;;;21.60;52.10;;;;;;699920;28;912;-86
2021/12/10 00:53:29;;;;;;;;;;;21.60;52.00;;;;;;700126;28;853;-87
2021/12/10 00:53:49;;;;;;;;;;;21.60;52.00;;;;;;700300;28;810;-85
2021/12/10 00:54:11;;;;;;;;;;;21.60;52.10;;;;;;699109;28;1225;-87
2021/12/10 00:54:31;;;;;;;;;;;21.60;52.10;;;;;;700026;28;802;-86
2021/12/10 00:54:52;;;;;;;;;;;21.60;52.10;;;;;;700032;28;802;-88
2021/12/10 00:55:13;;;;;;;;;;;21.60;52.10;;;;;;699844;28;861;-87
2021/12/10 00:55:34;;;;;;;;;;;21.60;52.10;;;;;;700023;28;805;-87
2021/12/10 00:55:54;;;;;;;;;;;21.60;52.10;;;;;;699966;28;810;-86
2021/12/10 00:56:15;;;;;;;;;;;21.60;52.10;;;;;;699568;28;1243;-87
2021/12/10 00:56:36;;;;;;;;;;;21.60;52.10;;;;;;699787;28;909;-86
2021/12/10 00:56:57;;;;;;;;;;;21.60;52.00;;;;;;699841;28;865;-87
2021/12/10 00:57:17;;;;;;;;;;;21.60;52.00;;;;;;699893;28;869;-87
2021/12/10 00:57:38;;;;;;;;;;;21.60;52.00;;;;;;699903;28;889;-86
2021/12/10 00:57:59;;;;;;;;;;;21.60;52.10;;;;;;699386;28;975;-86
2021/12/10 00:58:20;;;;;;;;;;;21.70;52.30;;;;;;703080;28;802;-84
2021/12/10 00:58:41;;;;;;;;;;;21.60;52.00;;;;;;703140;28;975;-86
2021/12/10 00:59:02;;;;;;;;;;;21.60;52.10;;;;;;702925;28;1036;-87
2021/12/10 00:59:23;;;;;;;;;;;21.60;52.10;;;;;;702812;28;1115;-88
2021/12/10 00:59:45;;;;;;;;;;;21.60;52.00;;;;;;703354;28;845;-88
2021/12/10 01:00:07;;;;;;;;;;;21.60;52.00;;;;;;703112;28;1051;-88
2021/12/10 01:00:35;;;;;;;;;;;21.60;52.10;;;;;;703015;28;1023;-89
2021/12/10 01:00:57;;;;;;;;;;;21.60;52.00;;;;;;703189;28;865;-87
2021/12/10 01:01:23;;;;;;;;;;;21.60;52.00;;;;;;703074;28;904;-88
2021/12/10 01:01:44;;;;;;;;;;;21.60;52.00;;;;;;703152;28;908;-89
2021/12/10 01:02:09;;;;;;;;;;;21.60;52.10;;;;;;703207;28;908;-88
2021/12/10 01:02:29;;;;;;;;;;;21.60;52.10;;;;;;703065;28;900;-82
2021/12/10 01:02:50;;;;;;;;;;;21.50;52.00;;;;;;701266;28;1054;-84
2021/12/10 01:03:12;;;;;;;;;;;21.60;52.10;;;;;;703269;28;1046;-88
2021/12/10 01:03:35;;;;;;;;;;;21.60;52.00;;;;;;703146;28;846;-88
2021/12/10 01:03:58;;;;;;;;;;;21.60;53.20;;;;;;703393;28;950;-88
2021/12/10 01:04:21;;;;;;;;;;;21.60;52.10;;;;;;703816;28;802;-89
2021/12/10 01:04:44;;;;;;;;;;;21.60;52.10;;;;;;703420;28;829;-87
2021/12/10 01:05:06;;;;;;;;;;;21.60;52.10;;;;;;703412;28;880;-88
2021/12/10 01:05:26;;;;;;;;;;;21.60;52.10;;;;;;703243;28;1285;-89
2021/12/10 01:05:49;;;;;;;;;;;21.60;52.00;;;;;;703337;28;904;-87
2021/12/10 01:06:11;;;;;;;;;;;21.60;52.10;;;;;;703247;28;813;-84
2021/12/10 01:06:32;;;;;;;;;;;21.60;52.10;;;;;;703153;28;1031;-87
2021/12/10 01:06:54;;;;;;;;;;;21.60;52.10;;;;;;703003;28;806;-88
2021/12/10 01:07:16;;;;;;;;;;;21.60;52.10;;;;;;702815;28;845;-87
2021/12/10 01:07:38;;;;;;;;;;;21.60;52.00;;;;;;703053;28;864;-87
2021/12/10 01:07:58;;;;;;;;;;;21.60;52.00;;;;;;703495;28;789;-89
2021/12/10 01:08:19;;;;;;;;;;;21.60;52.10;;;;;;703248;28;1894;-88
2021/12/10 01:08:42;;;;;;;;;;;21.60;52.10;;;;;;703226;28;829;-88
2021/12/10 01:09:06;;;;;;;;;;;21.60;52.10;;;;;;703266;28;1277;-87
2021/12/10 01:09:29;;;;;;;;;;;21.60;52.00;;;;;;703332;28;818;-89
2021/12/10 01:09:51;;;;;;;;;;;21.60;52.00;;;;;;703195;28;801;-87
2021/12/10 01:10:24;;;;;;;;;;;21.50;52.10;;;;;;703632;28;821;-87
2021/12/10 01:10:53;;;;;;;;;;;21.60;52.00;;;;;;702880;28;1217;-87
2021/12/10 01:11:21;;;;;;;;;;;21.60;52.10;;;;;;703683;28;782;-86
2021/12/10 01:11:47;;;;;;;;;;;21.60;52.10;;;;;;703634;28;833;-87
2021/12/10 01:12:11;;;;;;;;;;;21.50;52.10;;;;;;703622;28;845;-88
2021/12/10 01:12:35;;;;;;;;;;;21.60;52.10;;;;;;703746;28;779;-88
2021/12/10 01:12:57;;;;;;;;;;;21.60;52.10;;;;;;703144;28;917;-88
2021/12/10 01:13:24;;;;;;;;;;;21.60;52.10;;;;;;699631;28;1413;-88
2021/12/10 01:13:48;;;;;;;;;;;21.50;52.00;;;;;;703374;28;846;-88
2021/12/10 01:14:17;;;;;;;;;;;21.50;52.00;;;;;;700632;28;1056;-88
2021/12/10 01:15:19;;;;;;;;;;;21.60;52.00;;;;;;698639;28;967;-84
2021/12/10 01:24:36;;;;;;;;;;;21.50;52.10;;;;;;704158;28;911;-87
2021/12/10 01:25:35;;;;;;;;;;;21.50;52.10;;;;;;703121;28;817;-88
2021/12/10 01:26:09;;;;;;;;;;;21.50;52.20;;;;;;702888;28;822;-86
2021/12/10 01:26:55;;;;;;;;;;;21.50;52.30;;;;;;703018;28;834;-87
2021/12/10 01:27:32;;;;;;;;;;;21.50;52.20;;;;;;703028;28;904;-87
2021/12/10 01:27:53;;;;;;;;;;;21.50;52.20;;;;;;702802;28;798;-87
2021/12/10 01:28:13;;;;;;;;;;;21.50;52.20;;;;;;702942;28;1901;-87
2021/12/10 01:28:39;;;;;;;;;;;21.50;52.10;;;;;;703018;28;849;-88
2021/12/10 01:28:59;;;;;;;;;;;21.50;52.20;;;;;;702972;28;897;-85
2021/12/10 01:29:27;;;;;;;;;;;21.50;52.20;;;;;;702909;28;1031;-88
2021/12/10 01:29:52;;;;;;;;;;;21.50;52.20;;;;;;702890;28;869;-88
2021/12/10 01:30:18;;;;;;;;;;;21.50;52.20;;;;;;703184;28;818;-87
2021/12/10 01:30:39;;;;;;;;;;;21.50;52.20;;;;;;703004;28;936;-81
2021/12/10 01:31:00;;;;;;;;;;;21.50;52.20;;;;;;702981;28;860;-87
2021/12/10 01:31:21;;;;;;;;;;;21.50;52.20;;;;;;702693;28;798;-88
2021/12/10 01:31:42;;;;;;;;;;;21.50;52.20;;;;;;702877;28;766;-88
2021/12/10 01:32:05;;;;;;;;;;;21.50;52.10;;;;;;702791;28;916;-87
2021/12/10 01:32:27;;;;;;;;;;;21.50;52.10;;;;;;702996;28;1131;-88
2021/12/10 01:32:56;;;;;;;;;;;21.50;52.10;;;;;;702455;28;1345;-87
2021/12/10 01:33:17;;;;;;;;;;;21.50;52.10;;;;;;702599;28;842;-87
2021/12/10 01:33:40;;;;;;;;;;;21.50;52.10;;;;;;702594;28;834;-87
2021/12/10 01:34:00;;;;;;;;;;;21.50;52.10;;;;;;702408;28;1007;-87
2021/12/10 01:34:21;;;;;;;;;;;21.50;52.10;;;;;;702489;28;1479;-87
2021/12/10 01:34:42;;;;;;;;;;;21.50;52.10;;;;;;702698;28;858;-89
2021/12/10 01:35:08;;;;;;;;;;;21.50;52.10;;;;;;702775;28;814;-87
2021/12/10 01:35:30;;;;;;;;;;;21.50;52.10;;;;;;702658;28;789;-87
2021/12/10 01:35:56;;;;;;;;;;;21.50;52.10;;;;;;702747;28;826;-87
2021/12/10 01:36:17;;;;;;;;;;;21.50;52.10;;;;;;702886;28;948;-87
2021/12/10 01:36:38;;;;;;;;;;;21.50;52.10;;;;;;702830;28;1341;-88
2021/12/10 01:37:01;;;;;;;;;;;21.50;52.10;;;;;;702716;28;1396;-88
2021/12/10 01:37:23;;;;;;;;;;;21.50;52.10;;;;;;702718;28;884;-87
2021/12/10 01:37:44;;;;;;;;;;;21.50;52.10;;;;;;702496;28;1267;-86
2021/12/10 01:38:06;;;;;;;;;;;21.50;52.10;;;;;;702556;28;795;-88
2021/12/10 01:38:27;;;;;;;;;;;21.50;53.20;;;;;;702635;28;901;-87
2021/12/10 01:38:50;;;;;;;;;;;21.50;52.10;;;;;;702601;28;774;-88
2021/12/10 01:39:14;;;;;;;;;;;21.50;52.00;;;;;;702562;28;837;-86
2021/12/10 01:39:36;;;;;;;;;;;21.50;52.00;;;;;;702654;28;821;-87
2021/12/10 01:39:57;;;;;;;;;;;21.40;51.90;;;;;;702587;28;1405;-88
2021/12/10 01:40:20;;;;;;;;;;;21.50;52.10;;;;;;702757;28;868;-87
2021/12/10 01:40:42;;;;;;;;;;;21.40;52.00;;;;;;702738;28;810;-87
2021/12/10 01:41:06;;;;;;;;;;;21.40;52.00;;;;;;702860;28;876;-87
2021/12/10 01:41:33;;;;;;;;;;;21.50;52.10;;;;;;702717;28;833;-87
2021/12/10 01:42:01;;;;;;;;;;;21.50;52.00;;;;;;702361;28;1369;-87
2021/12/10 01:42:51;;;;;;;;;;;21.50;52.00;;;;;;699771;28;655;-86
2021/12/10 01:43:22;;;;;;;;;;;21.40;52.00;;;;;;699702;28;881;-87
2021/12/10 01:43:43;;;;;;;;;;;21.50;52.10;;;;;;700817;28;850;-88
2021/12/10 01:44:14;;;;;;;;;;;21.40;52.00;;;;;;702571;28;806;-87
2021/12/10 01:44:36;;;;;;;;;;;21.50;52.00;;;;;;702806;28;841;-87
2021/12/10 01:45:04;;;;;;;;;;;21.50;52.00;;;;;;702670;28;809;-88
2021/12/10 01:45:27;;;;;;;;;;;21.40;52.00;;;;;;702648;28;885;-87
2021/12/10 01:45:48;;;;;;;;;;;21.50;52.00;;;;;;702881;28;1325;-87
2021/12/10 01:46:12;;;;;;;;;;;21.40;52.00;;;;;;703131;28;758;-82
2021/12/10 01:46:38;;;;;;;;;;;21.50;52.00;;;;;;703548;28;829;-89
2021/12/10 01:47:01;;;;;;;;;;;21.50;52.00;;;;;;703006;28;1389;-88
2021/12/10 01:47:23;;;;;;;;;;;21.40;51.90;;;;;;699671;28;1046;-88
2021/12/10 01:47:45;;;;;;;;;;;21.40;52.00;;;;;;697939;28;866;-87
2021/12/10 01:48:07;;;;;;;;;;;21.40;52.00;;;;;;697782;28;901;-88
2021/12/10 01:48:33;;;;;;;;;;;21.40;52.00;;;;;;694452;28;1906;-88
2021/12/10 01:48:57;;;;;;;;;;;21.40;52.00;;;;;;696726;28;989;-87
2021/12/10 01:49:17;;;;;;;;;;;21.40;52.00;;;;;;697317;28;1341;-87
2021/12/10 01:49:38;;;;;;;;;;;21.50;52.10;;;;;;698129;28;945;-89
2021/12/10 01:49:58;;;;;;;;;;;21.40;52.00;;;;;;697637;28;873;-87
2021/12/10 01:50:19;;;;;;;;;;;21.40;52.00;;;;;;698338;28;1342;-81
2021/12/10 01:50:40;;;;;;;;;;;21.50;52.00;;;;;;698574;28;1027;-85
2021/12/10 01:51:01;;;;;;;;;;;21.40;52.00;;;;;;698330;28;1102;-83
2021/12/10 01:51:23;;;;;;;;;;;21.40;52.00;;;;;;700341;28;898;-79
2021/12/10 01:51:44;;;;;;;;;;;21.40;52.00;;;;;;698704;28;1354;-83
2021/12/10 01:52:05;;;;;;;;;;;21.40;52.00;;;;;;698600;28;1096;-87
2021/12/10 01:52:27;;;;;;;;;;;21.40;52.00;;;;;;698654;28;1053;-80
2021/12/10 01:52:49;;;;;;;;;;;21.40;52.00;;;;;;698638;28;893;-87
2021/12/10 01:53:10;;;;;;;;;;;21.40;52.00;;;;;;698223;28;1357;-79
2021/12/10 01:53:33;;;;;;;;;;;21.40;51.90;;;;;;700620;28;1591;-83
2021/12/10 01:53:55;;;;;;;;;;;21.40;51.90;;;;;;699096;28;1065;-85
2021/12/10 01:54:20;;;;;;;;;;;21.40;52.00;;;;;;699907;28;962;-79
2021/12/10 01:54:42;;;;;;;;;;;21.40;52.00;;;;;;698949;28;920;-82
2021/12/10 01:55:04;;;;;;;;;;;21.40;52.00;;;;;;699033;28;1276;-80
2021/12/10 01:55:26;;;;;;;;;;;21.40;51.90;;;;;;698737;28;1136;-78
2021/12/10 01:55:47;;;;;;;;;;;21.40;52.00;;;;;;698804;28;897;-85
2021/12/10 01:56:14;;;;;;;;;;;21.40;51.90;;;;;;701011;28;1003;-88
2021/12/10 01:56:36;;;;;;;;;;;21.40;51.90;;;;;;699262;28;1268;-84
2021/12/10 01:56:59;;;;;;;;;;;21.40;51.90;;;;;;704888;28;1027;-88
2021/12/10 01:57:21;;;;;;;;;;;21.40;51.90;;;;;;703466;28;1250;-86
2021/12/10 01:57:42;;;;;;;;;;;21.40;51.90;;;;;;701416;28;1089;-88
2021/12/10 01:58:04;;;;;;;;;;;21.40;51.90;;;;;;701466;28;1254;-86
2021/12/10 01:58:26;;;;;;;;;;;21.40;51.90;;;;;;699776;28;1058;-85
2021/12/10 01:58:47;;;;;;;;;;;21.50;52.00;;;;;;696589;28;877;-85
2021/12/10 01:59:09;;;;;;;;;;;21.50;52.00;;;;;;700165;28;1072;-83
2021/12/10 01:59:31;;;;;;;;;;;21.40;51.90;;;;;;698984;28;1733;-84
2021/12/10 01:59:52;;;;;;;;;;;21.40;51.90;;;;;;700525;28;858;-88
2021/12/10 02:00:14;;;;;;;;;;;21.40;52.00;;;;;;698915;28;1049;-86
2021/12/10 02:00:37;;;;;;;;;;;21.40;52.00;;;;;;699764;28;842;-86
2021/12/10 02:01:00;;;;;;;;;;;21.40;51.90;;;;;;699867;28;868;-87
2021/12/10 02:01:23;;;;;;;;;;;21.40;51.90;;;;;;699474;28;1209;-88
2021/12/10 02:01:46;;;;;;;;;;;21.40;51.90;;;;;;699654;28;770;-85
2021/12/10 02:02:10;;;;;;;;;;;21.40;51.90;;;;;;699569;28;841;-87
2021/12/10 02:02:35;;;;;;;;;;;21.40;52.00;;;;;;699645;28;944;-87
2021/12/10 02:02:56;;;;;;;;;;;21.40;51.80;;;;;;699688;28;806;-86
2021/12/10 02:03:17;;;;;;;;;;;21.40;51.80;;;;;;699723;28;1333;-86
2021/12/10 02:03:38;;;;;;;;;;;21.50;51.90;;;;;;699756;28;888;-86
2021/12/10 02:04:00;;;;;;;;;;;21.40;51.90;;;;;;699437;28;1199;-87
2021/12/10 02:04:22;;;;;;;;;;;21.40;51.90;;;;;;696752;28;1293;-86
2021/12/10 02:04:44;;;;;;;;;;;21.40;51.80;;;;;;696932;28;845;-88
2021/12/10 02:05:06;;;;;;;;;;;21.40;51.80;;;;;;696925;28;810;-87
2021/12/10 02:05:27;;;;;;;;;;;21.40;51.80;;;;;;696817;28;896;-88
2021/12/10 02:05:47;;;;;;;;;;;21.40;51.70;;;;;;697918;28;877;-87
2021/12/10 02:06:08;;;;;;;;;;;21.40;51.60;;;;;;699594;28;833;-87
2021/12/10 02:06:29;;;;;;;;;;;21.40;51.60;;;;;;700012;28;794;-86
2021/12/10 02:06:50;;;;;;;;;;;21.40;51.60;;;;;;699921;28;896;-86
2021/12/10 02:07:14;;;;;;;;;;;21.40;51.70;;;;;;699825;28;1074;-89
2021/12/10 02:07:34;;;;;;;;;;;21.40;51.60;;;;;;699682;28;781;-87
2021/12/10 02:07:55;;;;;;;;;;;21.40;51.60;;;;;;699666;28;888;-86
2021/12/10 02:08:16;;;;;;;;;;;21.40;51.70;;;;;;699885;28;1906;-87
2021/12/10 02:08:37;;;;;;;;;;;21.40;51.60;;;;;;699829;28;793;-85
2021/12/10 02:08:58;;;;;;;;;;;21.40;51.70;;;;;;699773;28;786;-87
2021/12/10 02:09:19;;;;;;;;;;;21.50;51.70;;;;;;699863;28;834;-86
2021/12/10 02:09:39;;;;;;;;;;;21.50;51.80;;;;;;699792;28;860;-85
2021/12/10 02:10:00;;;;;;;;;;;21.50;51.70;;;;;;699648;28;889;-86
2021/12/10 02:10:21;;;;;;;;;;;21.50;51.70;;;;;;699859;28;845;-87
2021/12/10 02:10:42;;;;;;;;;;;21.50;51.70;;;;;;699899;28;873;-88
2021/12/10 02:11:04;;;;;;;;;;;21.50;51.70;;;;;;700038;28;778;-88
2021/12/10 02:11:24;;;;;;;;;;;21.50;51.70;;;;;;699879;28;841;-88
2021/12/10 02:11:45;;;;;;;;;;;21.50;51.70;;;;;;699733;28;873;-86
2021/12/10 02:12:06;;;;;;;;;;;21.50;51.60;;;;;;699773;28;789;-89
2021/12/10 02:12:27;;;;;;;;;;;21.50;51.60;;;;;;699889;28;817;-89
2021/12/10 02:12:47;;;;;;;;;;;21.50;51.60;;;;;;699974;28;901;-88
2021/12/10 02:13:08;;;;;;;;;;;21.50;51.50;;;;;;699797;28;940;-88
2021/12/10 02:13:29;;;;;;;;;;;21.50;51.60;;;;;;699637;28;1384;-81
2021/12/10 02:13:50;;;;;;;;;;;21.60;51.70;;;;;;699694;28;856;-87
2021/12/10 02:14:10;;;;;;;;;;;21.60;51.60;;;;;;699424;28;881;-87
2021/12/10 02:14:31;;;;;;;;;;;21.60;51.50;;;;;;699619;28;810;-87
2021/12/10 02:15:03;;;;;;;;;;;21.60;51.40;;;;;;699709;28;797;-87
2021/12/10 02:15:27;;;;;;;;;;;21.60;51.50;;;;;;699885;28;845;-88
2021/12/10 02:15:48;;;;;;;;;;;21.60;51.30;;;;;;700105;28;830;-87
2021/12/10 02:16:08;;;;;;;;;;;21.60;51.40;;;;;;699869;28;801;-87
2021/12/10 02:16:29;;;;;;;;;;;21.60;51.40;;;;;;699895;28;1035;-84
2021/12/10 02:16:51;;;;;;;;;;;21.60;51.40;;;;;;699875;28;864;-87
2021/12/10 02:17:12;;;;;;;;;;;21.60;51.40;;;;;;699843;28;905;-86
2021/12/10 02:17:35;;;;;;;;;;;21.60;51.40;;;;;;699567;28;1504;-88
2021/12/10 02:17:57;;;;;;;;;;;21.60;51.30;;;;;;699579;28;898;-87
2021/12/10 02:18:20;;;;;;;;;;;21.60;51.30;;;;;;699651;28;1294;-88
2021/12/10 02:18:41;;;;;;;;;;;21.60;51.40;;;;;;696192;28;1276;-89
2021/12/10 02:19:02;;;;;;;;;;;21.60;51.30;;;;;;696940;28;885;-87
2021/12/10 02:19:23;;;;;;;;;;;21.60;51.30;;;;;;698159;28;866;-86
2021/12/10 02:19:44;;;;;;;;;;;21.60;51.20;;;;;;699584;28;873;-85
2021/12/10 02:20:06;;;;;;;;;;;21.70;51.30;;;;;;699596;28;842;-87
2021/12/10 02:20:48;;;;;;;;;;;21.70;51.30;;;;;;699627;28;837;-86
2021/12/10 02:21:09;;;;;;;;;;;21.70;51.30;;;;;;699847;28;872;-87
2021/12/10 02:21:31;;;;;;;;;;;21.70;51.40;;;;;;699874;28;877;-83
2021/12/10 02:21:52;;;;;;;;;;;21.70;51.20;;;;;;699865;28;844;-87
2021/12/10 02:22:13;;;;;;;;;;;21.60;51.10;;;;;;699719;28;885;-87
2021/12/10 02:22:33;;;;;;;;;;;21.70;51.20;;;;;;699726;28;802;-87
2021/12/10 02:22:54;;;;;;;;;;;21.70;51.20;;;;;;699859;28;790;-87
2021/12/10 02:23:14;;;;;;;;;;;21.70;51.20;;;;;;699912;28;798;-88
2021/12/10 02:23:37;;;;;;;;;;;21.70;51.20;;;;;;699925;28;829;-87
2021/12/10 02:23:58;;;;;;;;;;;21.70;52.30;;;;;;699617;28;901;-87
2021/12/10 02:24:20;;;;;;;;;;;21.70;51.10;;;;;;699548;28;1242;-80
2021/12/10 02:24:40;;;;;;;;;;;21.70;51.20;;;;;;699465;28;1448;-87
2021/12/10 02:25:01;;;;;;;;;;;21.70;51.20;;;;;;699675;28;809;-86
2021/12/10 02:25:25;;;;;;;;;;;21.70;51.30;;;;;;699691;28;849;-87
2021/12/10 02:25:46;;;;;;;;;;;21.70;51.20;;;;;;699577;28;813;-87
2021/12/10 02:26:07;;;;;;;;;;;21.70;51.10;;;;;;699526;28;877;-86
2021/12/10 02:26:29;;;;;;;;;;;21.70;51.20;;;;;;699494;28;1458;-86
2021/12/10 02:27:01;;;;;;;;;;;21.70;51.10;;;;;;699595;28;894;-87
2021/12/10 02:27:21;;;;;;;;;;;21.70;52.20;;;;;;699763;28;849;-87
2021/12/10 02:27:42;;;;;;;;;;;21.70;52.30;;;;;;696692;28;893;-89
2021/12/10 02:28:04;;;;;;;;;;;21.70;51.20;;;;;;696779;28;1172;-88
2021/12/10 02:28:25;;;;;;;;;;;21.70;51.20;;;;;;697045;28;1890;-87